Time;durP1;ratioP1;P1;durP2;ratioP2;P2;SDS_P1;SDS_P2;PMS_P1;PMS_P2;Temp;Humidity;BMP_temperature;BMP_pressure;BME280_temperature;BME280_humidity;BME280_pressure;Samples;Min_cycle;Max_cycle;Signal;HPM_P1;HPM_P2
2023/06/03 00:02:08;;;;;;;8.70;4.50;;;;;;;24.50;43.77;100093.97;5091396;28;20048;-69
2023/06/03 00:04:41;;;;;;;6.43;4.35;;;;;;;24.47;43.83;100098.97;5090962;28;20048;-68
2023/06/03 00:07:10;;;;;;;8.23;5.05;;;;;;;24.45;43.84;100101.88;5091180;28;20176;-68
2023/06/03 00:09:38;;;;;;;10.55;4.35;;;;;;;24.43;43.36;100100.38;5090906;28;20048;-69
2023/06/03 00:12:07;;;;;;;7.60;5.00;;;;;;;24.36;43.74;100113.06;5090991;28;20170;-68
2023/06/03 00:14:35;;;;;;;10.15;4.53;;;;;;;24.33;43.80;100124.34;5091220;28;20382;-68
2023/06/03 00:17:04;;;;;;;8.32;4.65;;;;;;;24.30;43.77;100120.03;5092516;28;20059;-69
2023/06/03 00:19:32;;;;;;;8.40;4.90;;;;;;;24.25;43.89;100126.06;5094750;28;20089;-68
2023/06/03 00:22:03;;;;;;;8.63;4.70;;;;;;;24.18;43.99;100127.81;5093383;28;20048;-69
2023/06/03 00:24:31;;;;;;;9.05;4.82;;;;;;;24.11;43.73;100126.00;5094373;28;20050;-69
2023/06/03 00:27:00;;;;;;;10.10;4.75;;;;;;;24.04;43.61;100130.50;5094364;28;20051;-69
2023/06/03 00:29:30;;;;;;;8.75;4.80;;;;;;;23.98;43.51;100137.53;5094437;28;20040;-69
2023/06/03 00:31:59;;;;;;;7.75;4.57;;;;;;;23.93;43.61;100135.34;5094302;28;20050;-69
2023/06/03 00:34:27;;;;;;;9.85;4.60;;;;;;;23.88;43.77;100132.31;5093110;28;20051;-69
2023/06/03 00:36:55;;;;;;;8.02;4.40;;;;;;;23.89;43.88;100131.28;5094252;28;20047;-69
2023/06/03 00:39:25;;;;;;;8.85;4.63;;;;;;;23.82;43.82;100138.47;5094110;28;20091;-69
2023/06/03 00:41:58;;;;;;;9.20;4.57;;;;;;;23.82;43.88;100138.47;5094176;28;20565;-69
2023/06/03 00:44:26;;;;;;;10.00;4.63;;;;;;;23.77;43.64;100132.72;5094128;28;20501;-69
2023/06/03 00:46:54;;;;;;;9.10;4.72;;;;;;;23.75;43.86;100140.25;5094290;28;20056;-69
2023/06/03 00:49:22;;;;;;;7.45;4.50;;;;;;;23.72;43.80;100137.84;5092845;28;20054;-67
2023/06/03 00:51:51;;;;;;;11.27;5.10;;;;;;;23.70;43.81;100134.47;5094444;28;20048;-68
2023/06/03 00:54:19;;;;;;;6.88;4.60;;;;;;;23.64;43.81;100132.47;5093831;28;20048;-68
2023/06/03 00:56:49;;;;;;;7.63;4.53;;;;;;;23.60;43.66;100134.69;5094014;28;20052;-69
2023/06/03 00:59:18;;;;;;;7.88;4.82;;;;;;;23.57;43.69;100135.03;5094021;28;20048;-69
2023/06/03 01:01:46;;;;;;;10.02;4.95;;;;;;;23.45;43.53;100139.19;5093869;28;20060;-68
2023/06/03 01:04:17;;;;;;;8.82;4.82;;;;;;;23.36;43.78;100135.66;5093604;28;20055;-67
2023/06/03 01:06:55;;;;;;;11.73;5.03;;;;;;;23.32;43.88;100136.19;5094033;28;20465;-68
2023/06/03 01:09:34;;;;;;;10.93;4.82;;;;;;;23.25;43.98;100138.75;5093517;28;20485;-69
2023/06/03 01:12:10;;;;;;;10.70;4.95;;;;;;;23.18;43.90;100134.22;5093555;28;20048;-69
2023/06/03 01:14:46;;;;;;;8.63;4.75;;;;;;;23.12;44.06;100133.03;5093368;28;20040;-69
2023/06/03 01:17:16;;;;;;;9.00;4.53;;;;;;;23.13;44.06;100129.28;5093648;28;20055;-69
2023/06/03 01:19:50;;;;;;;9.02;4.43;;;;;;;23.15;44.24;100129.94;5093514;28;20048;-69
2023/06/03 01:22:20;;;;;;;8.52;4.93;;;;;;;23.17;44.08;100127.09;5093535;28;20121;-69
2023/06/03 01:24:50;;;;;;;8.60;4.55;;;;;;;23.20;44.02;100122.13;5093358;28;20462;-69
2023/06/03 01:27:20;;;;;;;8.02;4.30;;;;;;;23.24;44.26;100128.91;5093252;28;20105;-69
2023/06/03 01:29:48;;;;;;;11.38;4.70;;;;;;;23.26;44.10;100129.59;5093503;28;20377;-69
2023/06/03 01:32:21;;;;;;;9.02;4.22;;;;;;;23.30;43.94;100130.91;5093280;28;20497;-69
2023/06/03 01:34:51;;;;;;;8.25;4.40;;;;;;;23.32;43.79;100137.03;5092113;28;20434;-69
2023/06/03 01:37:21;;;;;;;9.00;4.43;;;;;;;23.33;43.79;100138.72;5091769;28;20056;-68
2023/06/03 01:39:51;;;;;;;10.85;4.65;;;;;;;23.36;43.92;100135.66;5092839;28;20105;-68
2023/06/03 01:42:20;;;;;;;10.20;4.80;;;;;;;23.33;43.35;100138.72;5093125;28;20050;-69
2023/06/03 01:44:48;;;;;;;7.65;4.40;;;;;;;23.30;43.28;100139.09;5093147;28;20044;-68
2023/06/03 01:47:16;;;;;;;8.32;4.18;;;;;;;23.32;43.40;100137.03;5092987;28;20048;-68
2023/06/03 01:49:46;;;;;;;9.20;4.50;;;;;;;23.32;43.38;100142.47;5091638;28;20047;-68
2023/06/03 01:52:14;;;;;;;8.48;4.20;;;;;;;23.33;43.30;100146.88;5092778;28;20044;-68
2023/06/03 01:54:42;;;;;;;10.10;4.60;;;;;;;23.35;43.36;100141.25;5092626;28;20044;-69
2023/06/03 01:57:16;;;;;;;7.60;4.20;;;;;;;23.35;43.30;100150.28;5092809;28;20051;-70
2023/06/03 01:59:44;;;;;;;7.90;4.28;;;;;;;23.35;43.01;100152.16;5093025;28;20405;-70
2023/06/03 02:02:13;;;;;;;9.75;4.80;;;;;;;23.30;42.97;100163.56;5092785;28;20424;-69
2023/06/03 02:04:45;;;;;;;9.40;5.20;;;;;;;23.12;42.98;100160.25;5092463;28;20488;-69
2023/06/03 02:07:15;;;;;;;7.40;4.65;;;;;;;22.77;42.74;100164.19;5092540;28;20048;-69
2023/06/03 02:09:43;;;;;;;8.60;4.75;;;;;;;22.68;43.25;100165.25;5092252;28;20060;-69
2023/06/03 02:12:12;;;;;;;7.25;4.47;;;;;;;22.61;43.44;100169.69;5092560;28;20051;-69
2023/06/03 02:14:41;;;;;;;12.73;4.80;;;;;;;22.59;43.28;100180.75;5092377;28;20051;-69
2023/06/03 02:17:11;;;;;;;7.93;4.50;;;;;;;22.55;43.30;100179.38;5092258;28;20057;-69
2023/06/03 02:19:39;;;;;;;11.07;4.88;;;;;;;22.52;43.18;100182.44;5092142;28;20059;-69
2023/06/03 02:22:07;;;;;;;7.65;4.28;;;;;;;22.44;43.14;100186.00;5092455;28;20114;-69
2023/06/03 02:24:38;;;;;;;9.55;4.20;;;;;;;22.34;43.01;100195.34;5092376;28;20113;-69
2023/06/03 02:27:10;;;;;;;7.82;4.20;;;;;;;22.39;43.33;100184.78;5092242;28;20097;-69
2023/06/03 02:29:40;;;;;;;10.05;4.15;;;;;;;22.48;43.24;100183.78;5092123;28;20489;-69
2023/06/03 02:32:08;;;;;;;7.25;4.00;;;;;;;22.53;43.50;100190.41;5091935;28;20078;-69
2023/06/03 02:34:37;;;;;;;9.20;4.63;;;;;;;22.56;43.09;100187.34;5092528;28;20051;-69
2023/06/03 02:37:06;;;;;;;7.93;4.03;;;;;;;22.53;42.93;100184.97;5092142;28;20044;-69
2023/06/03 02:39:35;;;;;;;8.48;4.22;;;;;;;22.55;42.79;100188.38;5091712;28;20051;-69
2023/06/03 02:42:03;;;;;;;8.13;4.50;;;;;;;22.53;42.87;100195.00;5092045;28;20048;-69
2023/06/03 02:44:32;;;;;;;8.93;4.00;;;;;;;22.51;42.66;100194.34;5091850;28;20040;-69
2023/06/03 02:47:01;;;;;;;10.15;4.38;;;;;;;22.52;42.72;100198.75;5091763;28;20580;-69
2023/06/03 02:49:30;;;;;;;8.32;4.15;;;;;;;22.53;42.87;100214.03;5091975;28;20044;-69
2023/06/03 02:51:58;;;;;;;7.78;4.22;;;;;;;22.42;42.63;100206.22;5092161;28;20036;-69
2023/06/03 02:54:27;;;;;;;9.90;4.43;;;;;;;22.38;42.53;100216.56;5091863;28;20416;-69
2023/06/03 02:56:56;;;;;;;8.88;4.13;;;;;;;22.43;42.75;100218.78;5091709;28;20505;-69
2023/06/03 02:59:27;;;;;;;7.47;4.15;;;;;;;22.48;43.16;100229.97;5091592;28;20440;-69
2023/06/03 03:01:55;;;;;;;7.25;4.03;;;;;;;22.51;42.89;100229.66;5091867;28;20088;-69
2023/06/03 03:04:26;;;;;;;7.50;4.47;;;;;;;22.55;43.28;100231.84;5091572;28;20040;-69
2023/06/03 03:06:57;;;;;;;7.97;4.38;;;;;;;22.59;43.06;100236.97;5091866;28;20044;-69
2023/06/03 03:09:25;;;;;;;7.82;3.90;;;;;;;22.59;42.78;100235.09;5091678;28;20055;-69
2023/06/03 03:11:53;;;;;;;6.35;4.22;;;;;;;22.59;42.68;100235.09;5091533;28;20093;-69
2023/06/03 03:14:22;;;;;;;8.93;4.38;;;;;;;22.57;42.48;100234.41;5091822;28;20052;-68
2023/06/03 03:16:50;;;;;;;8.60;4.32;;;;;;;22.55;42.63;100239.16;5091597;28;20127;-68
2023/06/03 03:19:18;;;;;;;8.43;4.45;;;;;;;22.48;42.50;100247.13;5091564;28;20048;-69
2023/06/03 03:21:48;;;;;;;7.50;4.28;;;;;;;22.22;42.24;100258.16;5091362;28;20040;-69
2023/06/03 03:24:16;;;;;;;10.90;4.68;;;;;;;22.13;42.62;100261.88;5090247;28;20075;-69
2023/06/03 03:26:44;;;;;;;7.55;4.20;;;;;;;22.08;42.84;100264.22;5091380;28;20052;-69
2023/06/03 03:29:13;;;;;;;7.63;4.32;;;;;;;22.12;42.90;100256.63;5091740;28;20052;-68
2023/06/03 03:31:41;;;;;;;7.60;4.20;;;;;;;22.17;43.20;100259.66;5090310;28;20044;-68
2023/06/03 03:34:10;;;;;;;8.20;4.32;;;;;;;22.16;43.17;100258.81;5091376;28;20048;-68
2023/06/03 03:36:39;;;;;;;7.07;4.53;;;;;;;22.09;43.01;100267.81;5091551;28;20044;-68
2023/06/03 03:39:09;;;;;;;9.05;4.28;;;;;;;22.04;42.97;100271.00;5091014;28;20044;-68
2023/06/03 03:41:42;;;;;;;7.97;4.22;;;;;;;21.98;43.04;100277.06;5091268;28;20501;-69
2023/06/03 03:44:12;;;;;;;7.70;4.22;;;;;;;22.04;43.32;100279.16;5091464;28;20044;-69
2023/06/03 03:46:42;;;;;;;6.90;4.30;;;;;;;22.16;43.73;100285.16;5091323;28;20055;-68
2023/06/03 03:49:17;;;;;;;7.90;4.20;;;;;;;22.26;43.62;100285.84;5091118;28;20066;-69
2023/06/03 03:51:48;;;;;;;7.72;4.13;;;;;;;22.34;43.46;100282.28;5093300;28;20052;-69
2023/06/03 03:54:22;;;;;;;6.93;4.25;;;;;;;22.38;43.47;100289.94;5094962;28;20059;-69
2023/06/03 03:56:55;;;;;;;7.82;3.90;;;;;;;22.45;43.13;100290.13;5095047;28;20076;-69
2023/06/03 03:59:27;;;;;;;7.60;4.00;;;;;;;22.48;43.24;100289.78;5094921;28;20679;-69
2023/06/03 04:01:59;;;;;;;6.95;3.97;;;;;;;22.50;43.09;100299.47;5094965;28;20040;-69
2023/06/03 04:04:40;;;;;;;8.73;4.38;;;;;;;22.52;43.01;100296.59;5094771;28;20108;-69
2023/06/03 04:07:10;;;;;;;6.47;4.10;;;;;;;22.54;43.26;100303.56;5094858;28;20463;-69
2023/06/03 04:09:40;;;;;;;5.78;3.80;;;;;;;22.58;43.06;100306.78;5094613;28;20063;-69
2023/06/03 04:12:18;;;;;;;6.47;4.10;;;;;;;22.61;43.13;100311.03;5094834;28;20074;-69
2023/06/03 04:14:51;;;;;;;5.80;3.83;;;;;;;22.63;42.96;100309.00;5093419;28;20052;-68
2023/06/03 04:17:21;;;;;;;7.13;4.15;;;;;;;22.64;42.91;100318.84;5094809;28;20055;-69
2023/06/03 04:19:50;;;;;;;7.75;3.97;;;;;;;22.66;42.99;100320.38;5094689;28;20073;-69
2023/06/03 04:22:23;;;;;;;7.45;3.90;;;;;;;22.68;42.82;100312.94;5094646;28;20044;-69
2023/06/03 04:24:57;;;;;;;6.80;3.90;;;;;;;22.70;42.77;100310.03;5094375;28;20044;-69
2023/06/03 04:27:25;;;;;;;6.90;4.30;;;;;;;22.71;42.58;100312.56;5094494;28;20050;-69
2023/06/03 04:29:53;;;;;;;7.32;4.00;;;;;;;22.71;42.51;100311.72;5094595;28;20131;-69
2023/06/03 04:32:21;;;;;;;7.80;4.05;;;;;;;22.72;42.83;100310.72;5094398;28;20051;-69
2023/06/03 04:34:51;;;;;;;6.32;3.90;;;;;;;22.74;42.76;100317.66;5094425;28;20573;-69
2023/06/03 04:37:20;;;;;;;8.18;4.38;;;;;;;22.75;42.49;100313.94;5094445;28;20222;-69
2023/06/03 04:39:49;;;;;;;10.18;4.50;;;;;;;22.75;42.41;100319.38;5094089;28;20040;-69
2023/06/03 04:42:19;;;;;;;9.57;4.45;;;;;;;22.75;42.64;100324.81;5094337;28;20513;-69
2023/06/03 04:44:48;;;;;;;6.72;4.35;;;;;;;22.76;42.86;100326.50;5094283;28;20048;-69
2023/06/03 04:47:17;;;;;;;7.07;4.10;;;;;;;22.76;42.42;100321.06;5093996;28;20393;-69
2023/06/03 04:49:48;;;;;;;7.68;4.22;;;;;;;22.76;42.76;100321.06;5094046;28;20473;-69
2023/06/03 04:52:16;;;;;;;7.95;4.20;;;;;;;22.78;42.89;100329.06;5093970;28;20052;-68
2023/06/03 04:54:44;;;;;;;6.50;4.20;;;;;;;22.75;42.56;100322.09;5093767;28;20485;-69
2023/06/03 04:57:12;;;;;;;6.13;4.22;;;;;;;22.64;42.14;100327.84;5093822;28;20051;-69
2023/06/03 04:59:45;;;;;;;9.80;4.72;;;;;;;22.54;42.16;100329.88;5093863;28;20051;-69
2023/06/03 05:02:16;;;;;;;8.13;4.28;;;;;;;22.44;42.35;100329.19;5093534;28;20066;-69
2023/06/03 05:04:45;;;;;;;7.35;4.47;;;;;;;22.38;42.32;100327.97;5093484;28;20489;-69
2023/06/03 05:07:14;;;;;;;6.97;4.13;;;;;;;22.41;42.69;100334.97;5093953;28;20070;-69
2023/06/03 05:09:45;;;;;;;6.57;3.85;;;;;;;22.47;42.76;100337.00;5093640;28;20486;-68
2023/06/03 05:12:13;;;;;;;6.32;4.10;;;;;;;22.52;43.43;100338.22;5093662;28;20471;-69
2023/06/03 05:14:42;;;;;;;8.98;4.30;;;;;;;22.59;43.12;100343.84;5093543;28;20151;-69
2023/06/03 05:17:11;;;;;;;8.27;4.00;;;;;;;22.63;43.19;100339.75;5093576;28;20054;-69
2023/06/03 05:19:40;;;;;;;9.30;4.47;;;;;;;22.65;42.69;100340.44;5093281;28;20047;-69
2023/06/03 05:22:08;;;;;;;6.55;3.90;;;;;;;22.67;42.79;100351.97;5093563;28;20055;-69
2023/06/03 05:24:36;;;;;;;10.48;4.50;;;;;;;22.69;42.80;100349.97;5093376;28;20434;-69
2023/06/03 05:27:05;;;;;;;6.45;3.78;;;;;;;22.72;42.74;100346.91;5093239;28;20044;-69
2023/06/03 05:29:35;;;;;;;7.68;4.28;;;;;;;22.75;42.91;100346.56;5093616;28;20048;-69
2023/06/03 05:32:04;;;;;;;7.80;4.53;;;;;;;22.79;43.02;100350.66;5093013;28;20059;-69
2023/06/03 05:34:34;;;;;;;8.43;4.45;;;;;;;22.81;42.65;100351.34;5093400;28;20079;-69
2023/06/03 05:37:03;;;;;;;8.23;4.45;;;;;;;22.83;42.23;100353.88;5093320;28;20580;-69
2023/06/03 05:39:31;;;;;;;7.53;3.63;;;;;;;22.83;42.27;100351.16;5093173;28;20055;-69
2023/06/03 05:41:59;;;;;;;5.95;3.58;;;;;;;22.83;42.31;100348.44;5093299;28;20048;-69
2023/06/03 05:44:27;;;;;;;7.60;4.03;;;;;;;22.84;41.97;100356.44;5092901;28;20048;-69
2023/06/03 05:46:55;;;;;;;7.28;3.70;;;;;;;22.87;42.16;100354.41;5092924;28;20463;-69
2023/06/03 05:49:23;;;;;;;6.55;3.83;;;;;;;22.88;42.05;100356.13;5093061;28;20466;-69
2023/06/03 05:51:53;;;;;;;9.15;3.90;;;;;;;22.90;41.86;100356.81;5092990;28;20046;-70
2023/06/03 05:54:21;;;;;;;7.40;4.03;;;;;;;22.91;41.86;100361.22;5092546;28;20413;-70
2023/06/03 05:56:50;;;;;;;6.40;4.10;;;;;;;22.90;41.83;100370.41;5091490;28;20081;-70
2023/06/03 05:59:18;;;;;;;7.80;4.00;;;;;;;22.91;41.75;100374.81;5090786;28;20556;-68
2023/06/03 06:01:46;;;;;;;8.35;4.07;;;;;;;22.91;41.79;100372.09;5092440;28;20044;-68
2023/06/03 06:04:14;;;;;;;7.00;3.47;;;;;;;22.92;41.75;100377.38;5092428;28;20474;-68
2023/06/03 06:06:43;;;;;;;7.85;3.92;;;;;;;22.92;41.64;100373.81;5091997;28;20482;-67
2023/06/03 06:09:13;;;;;;;7.25;4.00;;;;;;;22.93;41.75;100375.50;5092134;28;20048;-68
2023/06/03 06:11:42;;;;;;;7.25;3.83;;;;;;;22.90;41.37;100373.97;5092037;28;20105;-68
2023/06/03 06:14:11;;;;;;;6.70;3.50;;;;;;;22.89;41.55;100379.59;5091763;28;20072;-68
2023/06/03 06:16:39;;;;;;;6.95;3.50;;;;;;;22.90;41.67;100376.69;5092544;28;20463;-68
2023/06/03 06:19:07;;;;;;;6.35;3.90;;;;;;;22.91;41.58;100377.56;5092486;28;20150;-68
2023/06/03 06:21:36;;;;;;;6.53;3.72;;;;;;;22.93;41.68;100380.94;5092668;28;20048;-68
2023/06/03 06:24:04;;;;;;;6.43;3.70;;;;;;;22.94;41.84;100369.03;5092214;28;20044;-71
2023/06/03 06:26:34;;;;;;;8.90;4.00;;;;;;;22.98;42.40;100384.88;5092167;28;20048;-68
2023/06/03 06:29:02;;;;;;;6.25;3.78;;;;;;;23.00;42.66;100387.41;5091168;28;20083;-72
2023/06/03 06:31:30;;;;;;;7.35;4.00;;;;;;;23.03;42.44;100384.34;5093221;28;20390;-71
2023/06/03 06:34:05;;;;;;;8.45;4.18;;;;;;;23.02;42.32;100386.22;5081600;28;20087;-69
2023/06/03 06:36:47;;;;;;;8.50;4.18;;;;;;;22.99;42.49;100396.59;5071795;28;20528;-69
2023/06/03 06:39:44;;;;;;;8.82;4.28;;;;;;;23.01;42.87;100397.28;5105679;28;20100;-71
2023/06/03 06:42:14;;;;;;;8.38;4.20;;;;;;;23.04;42.89;100394.19;5109576;28;20043;-70
2023/06/03 06:44:46;;;;;;;8.05;4.22;;;;;;;23.04;42.46;100399.66;5112212;28;20040;-71
2023/06/03 06:47:20;;;;;;;8.68;4.47;;;;;;;23.07;42.60;100415.66;5112051;28;20051;-68
2023/06/03 06:49:48;;;;;;;8.27;4.40;;;;;;;23.08;42.39;100406.47;5112313;28;20051;-69
2023/06/03 06:52:16;;;;;;;7.43;4.22;;;;;;;23.05;42.60;100404.06;5112106;28;20510;-69
2023/06/03 06:54:44;;;;;;;9.02;4.30;;;;;;;23.05;42.42;100396.75;5112239;28;20452;-70
2023/06/03 06:57:19;;;;;;;7.15;4.32;;;;;;;23.05;42.20;100401.34;5112205;28;20043;-70
2023/06/03 06:59:48;;;;;;;8.77;4.25;;;;;;;23.08;42.56;100403.75;5111822;28;20087;-69
2023/06/03 07:02:16;;;;;;;6.65;4.32;;;;;;;23.10;42.59;100407.13;5112153;28;20154;-69
2023/06/03 07:04:44;;;;;;;9.52;4.40;;;;;;;23.12;42.45;100402.38;5111971;28;20086;-69
2023/06/03 07:07:13;;;;;;;9.07;4.40;;;;;;;23.14;42.86;100411.22;5111978;28;20054;-70
2023/06/03 07:09:42;;;;;;;8.23;4.70;;;;;;;23.15;42.53;100407.47;5111719;28;20224;-70
2023/06/03 07:12:10;;;;;;;9.98;4.50;;;;;;;23.17;42.45;100415.50;5111841;28;20123;-69
2023/06/03 07:14:40;;;;;;;7.75;4.55;;;;;;;23.16;42.13;100409.16;5112036;28;20055;-69
2023/06/03 07:17:08;;;;;;;6.85;4.45;;;;;;;23.11;42.28;100411.56;5111963;28;20051;-70
2023/06/03 07:19:38;;;;;;;7.63;4.25;;;;;;;23.13;42.35;100415.81;5111868;28;20143;-70
2023/06/03 07:22:07;;;;;;;10.93;4.35;;;;;;;23.14;42.25;100422.94;5111768;28;20052;-69
2023/06/03 07:24:37;;;;;;;7.53;4.20;;;;;;;23.16;42.18;100416.47;5112174;28;20141;-70
2023/06/03 07:27:07;;;;;;;7.78;3.80;;;;;;;23.18;42.77;100428.91;5115933;28;20128;-70
2023/06/03 07:29:37;;;;;;;10.18;4.82;;;;;;;23.18;42.18;100425.34;5116221;28;20047;-70
2023/06/03 07:32:08;;;;;;;9.73;4.55;;;;;;;23.17;42.08;100431.81;5115997;28;20047;-70
2023/06/03 07:34:37;;;;;;;8.00;4.65;;;;;;;23.15;41.90;100429.22;5115993;28;20071;-69
2023/06/03 07:37:13;;;;;;;9.73;4.85;;;;;;;23.12;41.99;100426.84;5115842;28;20040;-69
2023/06/03 07:39:42;;;;;;;9.43;4.50;;;;;;;23.10;42.13;100431.63;5115413;28;20119;-70
2023/06/03 07:42:19;;;;;;;8.15;4.70;;;;;;;23.11;42.25;100425.16;5115914;28;20132;-70
2023/06/03 07:44:49;;;;;;;9.98;4.63;;;;;;;23.08;42.16;100428.22;5106680;28;20067;-70
2023/06/03 07:47:20;;;;;;;11.32;4.47;;;;;;;23.06;42.03;100424.81;5093977;28;20610;-70
2023/06/03 07:49:49;;;;;;;6.05;3.97;;;;;;;23.10;42.33;100426.19;5094261;28;20059;-69
2023/06/03 07:52:20;;;;;;;7.00;4.22;;;;;;;23.13;42.48;100431.28;5094491;28;20047;-68
2023/06/03 07:54:48;;;;;;;9.55;4.55;;;;;;;23.13;42.54;100423.13;5094513;28;20507;-69
2023/06/03 07:57:17;;;;;;;7.88;4.15;;;;;;;23.12;42.35;100432.31;5094633;28;20048;-69
2023/06/03 07:59:53;;;;;;;9.15;4.30;;;;;;;23.14;42.56;100446.59;5094585;28;20052;-69
2023/06/03 08:02:23;;;;;;;8.10;4.35;;;;;;;23.12;42.29;100438.59;5095013;28;20060;-67
2023/06/03 08:04:55;;;;;;;9.18;4.32;;;;;;;23.08;42.15;100439.97;5095179;28;20628;-67
2023/06/03 08:07:24;;;;;;;;;;;;;;;23.06;42.24;100441.97;5095270;28;20051;-66
2023/06/03 08:09:53;;;;;;;10.65;4.40;;;;;;;23.07;42.33;100445.56;5094711;28;20380;-67
2023/06/03 08:12:33;;;;;;;8.45;4.50;;;;;;;23.09;42.36;100446.25;5094821;28;20054;-67
2023/06/03 08:15:02;;;;;;;8.60;4.40;;;;;;;23.07;42.66;100442.84;5094587;28;20044;-67
2023/06/03 08:17:41;;;;;;;8.27;4.72;;;;;;;23.07;42.37;100446.44;5095693;28;20048;-69
2023/06/03 08:20:10;;;;;;;8.45;4.10;;;;;;;23.07;42.11;100443.72;5091759;28;20504;-68
2023/06/03 08:22:43;;;;;;;7.60;3.90;;;;;;;23.08;42.18;100450.00;5096893;28;20048;-71
2023/06/03 08:25:12;;;;;;;6.75;3.92;;;;;;;23.10;41.94;100453.38;5094624;28;20044;-66
2023/06/03 08:27:41;;;;;;;6.90;4.20;;;;;;;23.10;41.81;100450.66;5094509;28;20123;-67
2023/06/03 08:30:12;;;;;;;7.43;4.07;;;;;;;23.12;41.71;100456.78;5094668;28;20105;-67
2023/06/03 08:32:43;;;;;;;9.32;3.88;;;;;;;23.10;41.27;100448.81;5094505;28;20044;-68
2023/06/03 08:35:13;;;;;;;6.80;3.78;;;;;;;23.10;41.51;100453.38;5094196;28;20132;-66
2023/06/03 08:37:42;;;;;;;7.95;4.07;;;;;;;23.10;41.55;100453.38;5093707;28;20055;-72
2023/06/03 08:40:13;;;;;;;7.38;3.67;;;;;;;23.12;41.39;100454.06;5093983;28;20048;-68
2023/06/03 08:42:43;;;;;;;8.65;4.18;;;;;;;23.13;41.33;100459.34;5094432;28;20052;-68
2023/06/03 08:45:13;;;;;;;8.90;4.00;;;;;;;23.13;40.77;100458.50;5094058;28;20044;-68
2023/06/03 08:47:59;;;;;;;7.50;3.75;;;;;;;23.09;40.39;100448.97;5094281;28;20052;-68
2023/06/03 08:50:28;;;;;;;9.30;4.30;;;;;;;23.08;40.33;100450.00;5094031;28;20062;-69
2023/06/03 08:52:59;;;;;;;6.22;3.50;;;;;;;23.06;40.33;100458.28;5093512;28;20131;-69
2023/06/03 08:55:28;;;;;;;9.93;4.40;;;;;;;23.04;40.20;100463.06;5093971;28;20078;-67
2023/06/03 08:58:01;;;;;;;8.85;4.53;;;;;;;23.05;40.12;100463.91;5094188;28;20121;-67
2023/06/03 09:00:31;;;;;;;14.18;5.45;;;;;;;23.05;39.90;100458.47;5093716;28;20052;-67
2023/06/03 09:03:01;;;;;;;13.35;5.03;;;;;;;23.04;39.78;100462.22;5093682;28;20048;-68
2023/06/03 09:05:29;;;;;;;15.85;5.20;;;;;;;23.04;39.84;100457.63;5093746;28;20051;-67
2023/06/03 09:08:02;;;;;;;20.02;5.60;;;;;;;23.04;39.49;100456.78;5093746;28;20135;-65
2023/06/03 09:10:32;;;;;;;10.50;4.43;;;;;;;23.04;39.44;100464.94;5093776;28;20075;-69
2023/06/03 09:13:02;;;;;;;13.18;4.75;;;;;;;23.04;39.56;100454.91;5093721;28;20048;-68
2023/06/03 09:15:31;;;;;;;11.45;4.65;;;;;;;23.06;39.55;100458.28;5093807;28;20044;-66
2023/06/03 09:18:00;;;;;;;8.85;4.18;;;;;;;23.07;39.44;100456.47;5093418;28;20048;-71
2023/06/03 09:20:29;;;;;;;10.48;4.38;;;;;;;23.10;39.56;100461.56;5093535;28;20044;-72
2023/06/03 09:22:57;;;;;;;11.50;4.32;;;;;;;23.11;39.50;100460.53;5091632;28;20056;-65
2023/06/03 09:25:25;;;;;;;8.98;3.75;;;;;;;23.13;39.49;100469.38;5084235;28;20523;-69
2023/06/03 09:27:54;;;;;;;9.60;3.90;;;;;;;23.16;39.73;100471.75;5073580;28;20057;-73
2023/06/03 09:30:22;;;;;;;6.82;3.92;;;;;;;23.15;39.21;100472.75;5072896;28;20056;-69
2023/06/03 09:32:50;;;;;;;7.63;3.55;;;;;;;23.13;38.78;100474.81;5073248;28;20456;-69
2023/06/03 09:35:21;;;;;;;7.85;3.58;;;;;;;23.10;38.85;100465.13;5072952;28;20041;-66
2023/06/03 09:37:59;;;;;;;6.90;3.50;;;;;;;23.11;38.71;100465.97;5072896;28;20049;-71
2023/06/03 09:40:29;;;;;;;6.28;3.55;;;;;;;23.12;39.27;100467.66;5072545;28;20049;-70
2023/06/03 09:42:57;;;;;;;9.73;4.03;;;;;;;23.12;38.83;100462.22;5072442;28;20492;-70
2023/06/03 09:45:29;;;;;;;5.47;3.47;;;;;;;23.09;38.37;100462.56;5076206;28;20044;-66
2023/06/03 09:47:58;;;;;;;7.03;3.83;;;;;;;23.10;38.56;100453.38;5092447;28;20051;-67
2023/06/03 09:50:29;;;;;;;7.57;3.80;;;;;;;23.10;38.45;100453.38;5092548;28;20048;-66
2023/06/03 09:52:58;;;;;;;6.68;3.80;;;;;;;23.07;38.27;100451.88;5092469;28;20558;-67
2023/06/03 09:55:32;;;;;;;6.93;4.10;;;;;;;23.03;38.43;100452.34;5092464;28;20044;-66
2023/06/03 09:58:03;;;;;;;7.28;3.85;;;;;;;23.03;38.43;100449.63;5092515;28;20485;-66
2023/06/03 10:00:33;;;;;;;6.25;3.80;;;;;;;23.04;38.54;100449.47;5092505;28;20055;-66
2023/06/03 10:03:07;;;;;;;8.02;3.53;;;;;;;23.05;38.48;100442.16;5092336;28;20131;-68
2023/06/03 10:05:37;;;;;;;6.22;3.65;;;;;;;23.09;38.50;100448.97;5092481;28;20043;-67
2023/06/03 10:08:05;;;;;;;6.57;3.75;;;;;;;23.12;38.82;100459.50;5092326;28;20056;-66
2023/06/03 10:10:58;;;;;;;7.75;3.92;;;;;;;23.13;38.69;100453.91;5092345;28;20481;-66
2023/06/03 10:13:27;;;;;;;7.10;3.73;;;;;;;23.16;38.42;100452.69;5092510;28;20087;-67
2023/06/03 10:15:58;;;;;;;6.18;3.80;;;;;;;23.18;38.44;100450.69;5092346;28;20300;-67
2023/06/03 10:18:38;;;;;;;5.82;3.60;;;;;;;23.21;38.75;100455.78;5092024;28;20075;-67
2023/06/03 10:21:10;;;;;;;5.75;3.60;;;;;;;23.23;38.79;100453.72;5092428;28;20109;-66
2023/06/03 10:23:42;;;;;;;7.32;3.78;;;;;;;23.25;38.56;100450.84;5092320;28;20044;-67
2023/06/03 10:26:16;;;;;;;7.35;3.50;;;;;;;23.27;38.71;100449.66;5092458;28;20042;-66
2023/06/03 10:28:51;;;;;;;5.75;3.67;;;;;;;23.28;38.53;100450.53;5092516;28;20101;-67
2023/06/03 10:31:22;;;;;;;6.97;3.80;;;;;;;23.27;38.22;100457.84;5092480;28;20044;-67
2023/06/03 10:33:51;;;;;;;6.40;3.70;;;;;;;23.29;38.13;100447.63;5092339;28;20044;-67
2023/06/03 10:36:24;;;;;;;8.38;3.95;;;;;;;23.29;38.09;100447.63;5092061;28;20394;-67
2023/06/03 10:38:53;;;;;;;6.43;3.85;;;;;;;23.32;38.03;100446.44;5091997;28;20043;-68
2023/06/03 10:41:28;;;;;;;6.80;3.63;;;;;;;23.32;38.05;100452.72;5092063;28;20097;-67
2023/06/03 10:43:56;;;;;;;9.25;4.18;;;;;;;23.33;38.27;100453.56;5092628;28;20141;-69
2023/06/03 10:46:25;;;;;;;6.65;4.03;;;;;;;23.29;37.96;100442.19;5091968;28;20409;-71
2023/06/03 10:48:53;;;;;;;7.15;4.07;;;;;;;23.33;38.26;100440.81;5091885;28;20040;-67
2023/06/03 10:51:44;;;;;;;7.22;4.15;;;;;;;23.41;38.77;100446.25;5091796;28;20489;-67
2023/06/03 10:54:26;;;;;;;7.03;3.88;;;;;;;23.45;38.41;100446.78;5091535;28;20062;-68
2023/06/03 10:57:00;;;;;;;8.82;4.40;;;;;;;23.48;38.11;100448.31;5091932;28;20226;-66
2023/06/03 10:59:30;;;;;;;6.95;4.10;;;;;;;23.50;38.11;100440.81;5091365;28;20657;-67
2023/06/03 11:02:02;;;;;;;6.10;3.92;;;;;;;23.51;38.10;100439.78;5091728;28;20112;-66
2023/06/03 11:04:32;;;;;;;7.32;4.03;;;;;;;23.53;38.20;100445.91;5091569;28;20063;-67
2023/06/03 11:07:02;;;;;;;7.28;3.88;;;;;;;23.55;38.17;100446.59;5091915;28;20052;-66
2023/06/03 11:09:32;;;;;;;7.55;4.03;;;;;;;23.57;38.18;100445.41;5091415;28;20486;-68
2023/06/03 11:12:12;;;;;;;7.30;4.15;;;;;;;23.60;38.48;100446.97;5091713;28;20109;-66
2023/06/03 11:14:54;;;;;;;6.78;4.10;;;;;;;23.62;38.31;100439.47;5091469;28;20125;-67
2023/06/03 11:17:24;;;;;;;5.72;3.97;;;;;;;23.63;38.32;100438.44;5091885;28;20071;-67
2023/06/03 11:19:55;;;;;;;7.03;4.30;;;;;;;23.65;38.43;100436.41;5091615;28;20048;-65
2023/06/03 11:22:41;;;;;;;8.50;4.20;;;;;;;23.67;38.33;100428.91;5091453;28;20499;-68
2023/06/03 11:25:28;;;;;;;7.20;4.28;;;;;;;23.73;38.12;100430.09;5095246;28;20080;-66
2023/06/03 11:28:30;;;;;;;8.48;4.25;;;;;;;23.76;38.32;100433.34;5111941;28;20039;-66
2023/06/03 11:30:58;;;;;;;7.95;4.20;;;;;;;23.80;38.11;100431.94;5101146;28;20132;-65
2023/06/03 11:33:27;;;;;;;9.13;4.07;;;;;;;23.80;37.95;100429.22;5111702;28;20075;-65
2023/06/03 11:35:55;;;;;;;8.05;4.40;;;;;;;23.83;38.17;100439.75;5111829;28;20139;-67
2023/06/03 11:38:56;;;;;;;7.50;4.20;;;;;;;23.86;38.19;100434.00;5111367;28;20059;-67
2023/06/03 11:42:15;;;;;;;6.22;4.20;;;;;;;23.90;38.23;100432.59;5110351;28;20052;-67